West Elizabeth, PA (15088)

5:53 PM EDT on July 31, 2015 (GMT -0400)
Jefferson Hills | | Change Station
CLOSE
Current Station
Personal Weather Station
Location: Clairton, PA
Elevation: 919 ft
Nearby Weather Stations

Elev 919 ft 40.29 °N, 79.91 °W | Updated 13 seconds ago

Mostly Cloudy
Mostly Cloudy
83.1 °F
Feels Like 83 °F
N
0.0
Wind Variable Wind from South
Gusts 0.0 mph

Today
High -- | Low -- °F
--% Chance of Precip.
Yesterday
High -- | Low -- °F
Precip. -- in
6:16 AM 8:35 PM
Full, 100% visible
Pressure 29.91 in
Visibility 10.0 miles
Clouds Few 6500 ft
Mostly Cloudy 10000 ft
Heat Index 83 °F
Dew Point 58 °F
Humidity 43%
Rainfall 0.00 in
Snow Depth Not available.
UV 1.0 out of 12
Pollen 7.10 out of 12
Air Quality Not available.
Flu Activity Not available.
METAR KAGC 312053Z AUTO 28007G15KT 10SM FEW065 BKN100 27/11 A2992 RMK AO2 SLP126 T02720106 56013 TSNO

More Conditions Fewer Conditions

Pressure 29.91 in
Visibility 10.0 miles
Clouds Few 6500 ft
Mostly Cloudy 10000 ft
Heat Index 83 °F
Dew Point 58 °F
Humidity 43%
Rainfall 0.00 in
Snow Depth Not available.
UV 1.0 out of 12
Pollen 7.10 out of 12
Air Quality Not available.
Flu Activity Not available.
METAR KAGC 312053Z AUTO 28007G15KT 10SM FEW065 BKN100 27/11 A2992 RMK AO2 SLP126 T02720106 56013 TSNO

More Conditions Fewer Conditions

10-Day Weather Forecast

×

Almanac

Astronomy

Jul. 31, 2015 Rise Set
Actual Time
Civil Twilight
Nautical Twilight
Astronomical Twilight
Moon
Length of Visible Light
Length of Day
Tomorrow will be .
, % of the Moon is Illuminated

Today's Extremes

State Highs State Lows

Community

WunderPhotos

Upload Photos

1,842,759 photos uploaded!

WunderBlogs® & News

Nearby

Air Quality

  Air Quality AQ Index Pollutant
Not available.

Snow Depth

Station Depth Elevation

Earthquake Activity

City Distance Mag. Time & Date
Minimum magnitude displayed is 2.5.

Coastal Water Temperatures

Place Temperature

Stations

Nearby Weather Stations

Station Location Temp. Windchill Dew Point Humidity Wind Precip. Elev Updated Type